sensor_id;sensor_type;location;lat;lon;timestamp;temperature;humidity
6988;DHT22;3534;49.960;8.018;2022-12-07T00:00:45;6.30;99.90
6988;DHT22;3534;49.960;8.018;2022-12-07T00:03:11;6.30;99.90
6988;DHT22;3534;49.960;8.018;2022-12-07T00:05:39;6.30;99.90
6988;DHT22;3534;49.960;8.018;2022-12-07T00:08:06;6.30;99.90
6988;DHT22;3534;49.960;8.018;2022-12-07T00:10:33;6.30;99.90
6988;DHT22;3534;49.960;8.018;2022-12-07T00:13:00;6.30;99.90
6988;DHT22;3534;49.960;8.018;2022-12-07T00:15:27;6.40;99.90
6988;DHT22;3534;49.960;8.018;2022-12-07T00:17:53;6.30;99.90
6988;DHT22;3534;49.960;8.018;2022-12-07T00:20:20;6.20;99.90
6988;DHT22;3534;49.960;8.018;2022-12-07T00:22:48;6.20;99.90
6988;DHT22;3534;49.960;8.018;2022-12-07T00:25:15;6.20;99.90
6988;DHT22;3534;49.960;8.018;2022-12-07T00:27:42;6.20;99.90
6988;DHT22;3534;49.960;8.018;2022-12-07T00:30:09;6.20;99.90
6988;DHT22;3534;49.960;8.018;2022-12-07T00:32:36;6.20;99.90
6988;DHT22;3534;49.960;8.018;2022-12-07T00:35:04;6.20;99.90
6988;DHT22;3534;49.960;8.018;2022-12-07T00:37:31;6.20;99.90
6988;DHT22;3534;49.960;8.018;2022-12-07T00:39:59;6.20;99.90
6988;DHT22;3534;49.960;8.018;2022-12-07T00:42:26;6.30;99.90
6988;DHT22;3534;49.960;8.018;2022-12-07T00:44:53;6.30;99.90
6988;DHT22;3534;49.960;8.018;2022-12-07T00:47:19;6.30;99.90
6988;DHT22;3534;49.960;8.018;2022-12-07T00:49:46;6.30;99.90
6988;DHT22;3534;49.960;8.018;2022-12-07T00:52:13;6.40;99.90
6988;DHT22;3534;49.960;8.018;2022-12-07T00:54:40;6.40;99.90
6988;DHT22;3534;49.960;8.018;2022-12-07T00:57:08;6.40;99.90
6988;DHT22;3534;49.960;8.018;2022-12-07T00:59:34;6.40;99.90
6988;DHT22;3534;49.960;8.018;2022-12-07T01:02:01;6.40;99.90
6988;DHT22;3534;49.960;8.018;2022-12-07T01:04:28;6.40;99.90
6988;DHT22;3534;49.960;8.018;2022-12-07T01:06:55;6.40;99.90
6988;DHT22;3534;49.960;8.018;2022-12-07T01:09:21;6.40;99.90
6988;DHT22;3534;49.960;8.018;2022-12-07T01:11:48;6.40;99.90
6988;DHT22;3534;49.960;8.018;2022-12-07T01:14:16;6.30;99.90
6988;DHT22;3534;49.960;8.018;2022-12-07T01:16:43;6.30;99.90
6988;DHT22;3534;49.960;8.018;2022-12-07T01:19:10;6.20;99.90
6988;DHT22;3534;49.960;8.018;2022-12-07T01:21:38;6.20;99.90
6988;DHT22;3534;49.960;8.018;2022-12-07T01:24:06;6.20;99.90
6988;DHT22;3534;49.960;8.018;2022-12-07T01:26:33;6.20;99.90
6988;DHT22;3534;49.960;8.018;2022-12-07T01:29:00;6.20;99.90
6988;DHT22;3534;49.960;8.018;2022-12-07T01:31:28;6.20;99.90
6988;DHT22;3534;49.960;8.018;2022-12-07T01:33:57;6.30;99.90
6988;DHT22;3534;49.960;8.018;2022-12-07T01:36:25;6.30;99.90
6988;DHT22;3534;49.960;8.018;2022-12-07T01:38:54;6.30;99.90
6988;DHT22;3534;49.960;8.018;2022-12-07T01:41:22;6.30;99.90
6988;DHT22;3534;49.960;8.018;2022-12-07T01:44:09;6.30;99.90
6988;DHT22;3534;49.960;8.018;2022-12-07T01:46:39;6.40;99.90
6988;DHT22;3534;49.960;8.018;2022-12-07T01:49:08;6.30;99.90
6988;DHT22;3534;49.960;8.018;2022-12-07T01:51:38;6.30;99.90
6988;DHT22;3534;49.960;8.018;2022-12-07T01:54:07;6.30;99.90
6988;DHT22;3534;49.960;8.018;2022-12-07T01:56:34;6.40;99.90
6988;DHT22;3534;49.960;8.018;2022-12-07T01:59:02;6.40;99.90
6988;DHT22;3534;49.960;8.018;2022-12-07T02:01:29;6.40;99.90
6988;DHT22;3534;49.960;8.018;2022-12-07T02:03:58;6.40;99.90
6988;DHT22;3534;49.960;8.018;2022-12-07T02:06:25;6.40;99.90
6988;DHT22;3534;49.960;8.018;2022-12-07T02:08:53;6.40;99.90
6988;DHT22;3534;49.960;8.018;2022-12-07T02:11:20;6.40;99.90
6988;DHT22;3534;49.960;8.018;2022-12-07T02:13:48;6.40;99.90
6988;DHT22;3534;49.960;8.018;2022-12-07T02:16:25;6.30;99.90
6988;DHT22;3534;49.960;8.018;2022-12-07T02:19:12;6.40;99.90
6988;DHT22;3534;49.960;8.018;2022-12-07T02:21:48;6.30;99.90
6988;DHT22;3534;49.960;8.018;2022-12-07T02:24:33;6.30;99.90
6988;DHT22;3534;49.960;8.018;2022-12-07T02:27:37;6.30;99.90
6988;DHT22;3534;49.960;8.018;2022-12-07T02:30:08;6.30;99.90
6988;DHT22;3534;49.960;8.018;2022-12-07T02:32:42;6.30;99.90
6988;DHT22;3534;49.960;8.018;2022-12-07T02:35:12;6.30;99.90
6988;DHT22;3534;49.960;8.018;2022-12-07T02:37:46;6.20;99.90
6988;DHT22;3534;49.960;8.018;2022-12-07T02:40:20;6.30;99.90
6988;DHT22;3534;49.960;8.018;2022-12-07T02:42:52;6.30;99.90
6988;DHT22;3534;49.960;8.018;2022-12-07T02:45:25;6.30;99.90
6988;DHT22;3534;49.960;8.018;2022-12-07T02:47:56;6.30;99.90
6988;DHT22;3534;49.960;8.018;2022-12-07T02:50:25;6.30;99.90
6988;DHT22;3534;49.960;8.018;2022-12-07T02:52:52;6.30;99.90
6988;DHT22;3534;49.960;8.018;2022-12-07T02:55:24;6.30;99.90
6988;DHT22;3534;49.960;8.018;2022-12-07T02:58:17;6.30;99.90
6988;DHT22;3534;49.960;8.018;2022-12-07T03:00:54;6.30;99.90
6988;DHT22;3534;49.960;8.018;2022-12-07T03:03:23;6.30;99.90
6988;DHT22;3534;49.960;8.018;2022-12-07T03:08:47;6.40;99.90
6988;DHT22;3534;49.960;8.018;2022-12-07T03:11:16;6.40;99.90
6988;DHT22;3534;49.960;8.018;2022-12-07T03:13:48;6.40;99.90
6988;DHT22;3534;49.960;8.018;2022-12-07T03:16:20;6.40;99.90
6988;DHT22;3534;49.960;8.018;2022-12-07T03:18:50;6.40;99.90
6988;DHT22;3534;49.960;8.018;2022-12-07T03:21:21;6.40;99.90
6988;DHT22;3534;49.960;8.018;2022-12-07T03:23:52;6.40;99.90
6988;DHT22;3534;49.960;8.018;2022-12-07T03:26:23;6.50;99.90
6988;DHT22;3534;49.960;8.018;2022-12-07T03:28:53;6.50;99.90
6988;DHT22;3534;49.960;8.018;2022-12-07T03:31:26;6.50;99.90
6988;DHT22;3534;49.960;8.018;2022-12-07T03:33:59;6.50;99.90
6988;DHT22;3534;49.960;8.018;2022-12-07T03:36:33;6.50;99.90
6988;DHT22;3534;49.960;8.018;2022-12-07T03:39:08;6.50;99.90
6988;DHT22;3534;49.960;8.018;2022-12-07T03:41:38;6.50;99.90
6988;DHT22;3534;49.960;8.018;2022-12-07T03:44:06;6.50;99.90
6988;DHT22;3534;49.960;8.018;2022-12-07T03:46:38;6.60;99.90
6988;DHT22;3534;49.960;8.018;2022-12-07T03:49:12;6.60;99.90
6988;DHT22;3534;49.960;8.018;2022-12-07T03:51:45;6.60;99.90
6988;DHT22;3534;49.960;8.018;2022-12-07T03:54:19;6.60;99.90
6988;DHT22;3534;49.960;8.018;2022-12-07T03:56:47;6.60;99.90
6988;DHT22;3534;49.960;8.018;2022-12-07T03:59:16;6.60;99.90
6988;DHT22;3534;49.960;8.018;2022-12-07T04:01:44;6.60;99.90
6988;DHT22;3534;49.960;8.018;2022-12-07T04:04:11;6.70;99.90
6988;DHT22;3534;49.960;8.018;2022-12-07T04:06:38;6.60;99.90
6988;DHT22;3534;49.960;8.018;2022-12-07T04:09:05;6.60;99.90
6988;DHT22;3534;49.960;8.018;2022-12-07T04:11:32;6.70;99.90
6988;DHT22;3534;49.960;8.018;2022-12-07T04:13:59;6.70;99.90
6988;DHT22;3534;49.960;8.018;2022-12-07T04:16:49;6.70;99.90
6988;DHT22;3534;49.960;8.018;2022-12-07T04:19:17;6.60;99.90
6988;DHT22;3534;49.960;8.018;2022-12-07T04:21:44;6.60;99.90
6988;DHT22;3534;49.960;8.018;2022-12-07T04:24:12;6.60;99.90
6988;DHT22;3534;49.960;8.018;2022-12-07T04:26:39;6.60;99.90
6988;DHT22;3534;49.960;8.018;2022-12-07T04:29:06;6.60;99.90
6988;DHT22;3534;49.960;8.018;2022-12-07T04:31:33;6.60;99.90
6988;DHT22;3534;49.960;8.018;2022-12-07T04:34:01;6.60;99.90
6988;DHT22;3534;49.960;8.018;2022-12-07T04:36:28;6.60;99.90
6988;DHT22;3534;49.960;8.018;2022-12-07T04:38:55;6.60;99.90
6988;DHT22;3534;49.960;8.018;2022-12-07T04:41:23;6.60;99.90
6988;DHT22;3534;49.960;8.018;2022-12-07T04:43:53;6.50;99.90
6988;DHT22;3534;49.960;8.018;2022-12-07T04:46:20;6.60;99.90
6988;DHT22;3534;49.960;8.018;2022-12-07T04:48:47;6.60;99.90
6988;DHT22;3534;49.960;8.018;2022-12-07T04:51:16;6.50;99.90
6988;DHT22;3534;49.960;8.018;2022-12-07T04:53:44;6.60;99.90
6988;DHT22;3534;49.960;8.018;2022-12-07T04:56:11;6.50;99.90
6988;DHT22;3534;49.960;8.018;2022-12-07T04:58:38;6.60;99.90
6988;DHT22;3534;49.960;8.018;2022-12-07T05:01:04;6.50;99.90
6988;DHT22;3534;49.960;8.018;2022-12-07T05:03:31;6.50;99.90
6988;DHT22;3534;49.960;8.018;2022-12-07T05:05:58;6.50;99.90
6988;DHT22;3534;49.960;8.018;2022-12-07T05:08:26;6.50;99.90
6988;DHT22;3534;49.960;8.018;2022-12-07T05:10:53;6.50;99.90
6988;DHT22;3534;49.960;8.018;2022-12-07T05:13:19;6.50;99.90
6988;DHT22;3534;49.960;8.018;2022-12-07T05:15:46;6.50;99.90
6988;DHT22;3534;49.960;8.018;2022-12-07T05:18:13;6.50;99.90
6988;DHT22;3534;49.960;8.018;2022-12-07T05:20:40;6.60;99.90
6988;DHT22;3534;49.960;8.018;2022-12-07T05:23:08;6.60;99.90
6988;DHT22;3534;49.960;8.018;2022-12-07T05:25:36;6.60;99.90
6988;DHT22;3534;49.960;8.018;2022-12-07T05:28:03;6.60;99.90
6988;DHT22;3534;49.960;8.018;2022-12-07T05:30:30;6.70;99.90
6988;DHT22;3534;49.960;8.018;2022-12-07T05:32:58;6.60;99.90
6988;DHT22;3534;49.960;8.018;2022-12-07T05:35:25;6.60;99.90
6988;DHT22;3534;49.960;8.018;2022-12-07T05:37:52;6.60;99.90
6988;DHT22;3534;49.960;8.018;2022-12-07T05:40:19;6.60;99.90
6988;DHT22;3534;49.960;8.018;2022-12-07T05:42:47;6.60;99.90
6988;DHT22;3534;49.960;8.018;2022-12-07T05:45:14;6.60;99.90
6988;DHT22;3534;49.960;8.018;2022-12-07T05:47:40;6.60;99.90
6988;DHT22;3534;49.960;8.018;2022-12-07T05:50:07;6.60;99.90
6988;DHT22;3534;49.960;8.018;2022-12-07T05:52:34;6.60;99.90
6988;DHT22;3534;49.960;8.018;2022-12-07T05:55:01;6.60;99.90
6988;DHT22;3534;49.960;8.018;2022-12-07T05:57:27;6.60;99.90
6988;DHT22;3534;49.960;8.018;2022-12-07T05:59:56;6.60;99.90
6988;DHT22;3534;49.960;8.018;2022-12-07T06:02:22;6.60;99.90
6988;DHT22;3534;49.960;8.018;2022-12-07T06:04:48;6.60;99.90
6988;DHT22;3534;49.960;8.018;2022-12-07T06:07:16;6.60;99.90
6988;DHT22;3534;49.960;8.018;2022-12-07T06:09:43;6.60;99.90
6988;DHT22;3534;49.960;8.018;2022-12-07T06:12:10;6.60;99.90
6988;DHT22;3534;49.960;8.018;2022-12-07T06:14:57;6.70;99.90
6988;DHT22;3534;49.960;8.018;2022-12-07T06:17:24;6.70;99.90
6988;DHT22;3534;49.960;8.018;2022-12-07T06:19:51;6.70;99.90
6988;DHT22;3534;49.960;8.018;2022-12-07T06:22:18;6.70;99.90
6988;DHT22;3534;49.960;8.018;2022-12-07T06:24:45;6.60;99.90
6988;DHT22;3534;49.960;8.018;2022-12-07T06:27:12;6.60;99.90
6988;DHT22;3534;49.960;8.018;2022-12-07T06:29:39;6.50;99.90
6988;DHT22;3534;49.960;8.018;2022-12-07T06:32:07;6.50;99.90
6988;DHT22;3534;49.960;8.018;2022-12-07T06:34:34;6.50;99.90
6988;DHT22;3534;49.960;8.018;2022-12-07T06:37:01;6.50;99.90
6988;DHT22;3534;49.960;8.018;2022-12-07T06:39:28;6.60;99.90
6988;DHT22;3534;49.960;8.018;2022-12-07T06:41:56;6.60;99.90
6988;DHT22;3534;49.960;8.018;2022-12-07T06:44:23;6.60;99.90
6988;DHT22;3534;49.960;8.018;2022-12-07T06:46:51;6.60;99.90
6988;DHT22;3534;49.960;8.018;2022-12-07T06:49:19;6.70;99.90
6988;DHT22;3534;49.960;8.018;2022-12-07T06:51:46;6.70;99.90
6988;DHT22;3534;49.960;8.018;2022-12-07T06:54:14;6.70;99.90
6988;DHT22;3534;49.960;8.018;2022-12-07T06:56:41;6.80;99.90
6988;DHT22;3534;49.960;8.018;2022-12-07T06:59:08;6.80;99.90
6988;DHT22;3534;49.960;8.018;2022-12-07T07:01:35;6.80;99.90
6988;DHT22;3534;49.960;8.018;2022-12-07T07:04:02;6.80;99.90
6988;DHT22;3534;49.960;8.018;2022-12-07T07:06:30;6.80;99.90
6988;DHT22;3534;49.960;8.018;2022-12-07T07:08:57;6.80;99.90
6988;DHT22;3534;49.960;8.018;2022-12-07T07:11:24;6.80;99.90
6988;DHT22;3534;49.960;8.018;2022-12-07T07:13:50;6.80;99.90
6988;DHT22;3534;49.960;8.018;2022-12-07T07:16:17;6.70;99.90
6988;DHT22;3534;49.960;8.018;2022-12-07T07:18:44;6.70;99.90
6988;DHT22;3534;49.960;8.018;2022-12-07T07:21:10;6.70;99.90
6988;DHT22;3534;49.960;8.018;2022-12-07T07:23:38;6.80;99.90
6988;DHT22;3534;49.960;8.018;2022-12-07T07:26:05;6.70;99.90
6988;DHT22;3534;49.960;8.018;2022-12-07T07:28:32;6.70;99.90
6988;DHT22;3534;49.960;8.018;2022-12-07T07:30:59;6.70;99.90
6988;DHT22;3534;49.960;8.018;2022-12-07T07:33:25;6.70;99.90
6988;DHT22;3534;49.960;8.018;2022-12-07T07:35:52;6.70;99.90
6988;DHT22;3534;49.960;8.018;2022-12-07T07:38:19;6.70;99.90
6988;DHT22;3534;49.960;8.018;2022-12-07T07:40:47;6.70;99.90
6988;DHT22;3534;49.960;8.018;2022-12-07T07:43:14;6.60;99.90
6988;DHT22;3534;49.960;8.018;2022-12-07T07:45:40;6.60;99.90
6988;DHT22;3534;49.960;8.018;2022-12-07T07:48:07;6.60;99.90
6988;DHT22;3534;49.960;8.018;2022-12-07T07:50:34;6.60;99.90
6988;DHT22;3534;49.960;8.018;2022-12-07T07:53:01;6.60;99.90
6988;DHT22;3534;49.960;8.018;2022-12-07T07:55:27;6.70;99.90
6988;DHT22;3534;49.960;8.018;2022-12-07T07:57:55;6.70;99.90
6988;DHT22;3534;49.960;8.018;2022-12-07T08:00:23;6.80;99.90
6988;DHT22;3534;49.960;8.018;2022-12-07T08:02:50;6.80;99.90
6988;DHT22;3534;49.960;8.018;2022-12-07T08:05:16;6.90;99.90
6988;DHT22;3534;49.960;8.018;2022-12-07T08:07:43;6.90;99.90
6988;DHT22;3534;49.960;8.018;2022-12-07T08:10:12;7.00;99.90
6988;DHT22;3534;49.960;8.018;2022-12-07T08:12:40;7.00;99.90
6988;DHT22;3534;49.960;8.018;2022-12-07T08:15:22;7.00;99.90
6988;DHT22;3534;49.960;8.018;2022-12-07T08:17:49;7.00;99.90
6988;DHT22;3534;49.960;8.018;2022-12-07T08:20:16;7.00;99.90
6988;DHT22;3534;49.960;8.018;2022-12-07T08:22:43;7.00;99.90
6988;DHT22;3534;49.960;8.018;2022-12-07T08:25:09;6.90;99.90
6988;DHT22;3534;49.960;8.018;2022-12-07T08:27:36;6.90;99.90
6988;DHT22;3534;49.960;8.018;2022-12-07T08:30:03;6.90;99.90
6988;DHT22;3534;49.960;8.018;2022-12-07T08:32:32;7.00;99.90
6988;DHT22;3534;49.960;8.018;2022-12-07T08:34:58;7.00;99.90
6988;DHT22;3534;49.960;8.018;2022-12-07T08:37:25;7.00;99.90
6988;DHT22;3534;49.960;8.018;2022-12-07T08:39:52;7.00;99.90
6988;DHT22;3534;49.960;8.018;2022-12-07T08:42:19;7.00;99.90
6988;DHT22;3534;49.960;8.018;2022-12-07T08:44:48;7.00;99.90
6988;DHT22;3534;49.960;8.018;2022-12-07T08:47:15;7.00;99.90
6988;DHT22;3534;49.960;8.018;2022-12-07T08:49:46;7.00;99.90
6988;DHT22;3534;49.960;8.018;2022-12-07T08:52:14;7.00;99.90
6988;DHT22;3534;49.960;8.018;2022-12-07T08:54:42;7.00;99.90
6988;DHT22;3534;49.960;8.018;2022-12-07T08:57:09;7.00;99.90
6988;DHT22;3534;49.960;8.018;2022-12-07T08:59:37;6.90;99.90
6988;DHT22;3534;49.960;8.018;2022-12-07T09:02:04;7.00;99.90
6988;DHT22;3534;49.960;8.018;2022-12-07T09:04:30;6.90;99.90
6988;DHT22;3534;49.960;8.018;2022-12-07T09:06:59;6.90;99.90
6988;DHT22;3534;49.960;8.018;2022-12-07T09:09:25;6.90;99.90
6988;DHT22;3534;49.960;8.018;2022-12-07T09:11:52;7.00;99.90
6988;DHT22;3534;49.960;8.018;2022-12-07T09:14:19;7.00;99.90
6988;DHT22;3534;49.960;8.018;2022-12-07T09:16:46;7.00;99.90
6988;DHT22;3534;49.960;8.018;2022-12-07T09:19:13;7.10;99.90
6988;DHT22;3534;49.960;8.018;2022-12-07T09:21:39;7.10;99.90
6988;DHT22;3534;49.960;8.018;2022-12-07T09:24:08;7.10;99.90
6988;DHT22;3534;49.960;8.018;2022-12-07T09:26:35;7.20;99.90
6988;DHT22;3534;49.960;8.018;2022-12-07T09:29:02;7.20;99.90
6988;DHT22;3534;49.960;8.018;2022-12-07T09:31:28;7.20;99.90
6988;DHT22;3534;49.960;8.018;2022-12-07T09:33:55;7.30;99.90
6988;DHT22;3534;49.960;8.018;2022-12-07T09:36:22;7.30;99.90
6988;DHT22;3534;49.960;8.018;2022-12-07T09:38:49;7.30;99.90
6988;DHT22;3534;49.960;8.018;2022-12-07T09:41:17;7.30;99.90
6988;DHT22;3534;49.960;8.018;2022-12-07T09:43:45;7.30;99.90
6988;DHT22;3534;49.960;8.018;2022-12-07T09:46:14;7.40;99.90
6988;DHT22;3534;49.960;8.018;2022-12-07T09:48:43;7.40;99.90
6988;DHT22;3534;49.960;8.018;2022-12-07T09:51:14;7.40;99.90
6988;DHT22;3534;49.960;8.018;2022-12-07T09:53:42;7.40;99.90
6988;DHT22;3534;49.960;8.018;2022-12-07T09:56:12;7.40;99.90
6988;DHT22;3534;49.960;8.018;2022-12-07T09:58:41;7.50;99.90
6988;DHT22;3534;49.960;8.018;2022-12-07T10:01:11;7.50;99.90
6988;DHT22;3534;49.960;8.018;2022-12-07T10:03:41;7.50;99.90
6988;DHT22;3534;49.960;8.018;2022-12-07T10:06:11;7.60;99.90
6988;DHT22;3534;49.960;8.018;2022-12-07T10:08:39;7.60;99.90
6988;DHT22;3534;49.960;8.018;2022-12-07T10:11:07;7.60;99.90
6988;DHT22;3534;49.960;8.018;2022-12-07T10:13:37;7.70;99.90
6988;DHT22;3534;49.960;8.018;2022-12-07T10:16:07;7.70;99.90
6988;DHT22;3534;49.960;8.018;2022-12-07T10:18:53;7.80;99.90
6988;DHT22;3534;49.960;8.018;2022-12-07T10:21:22;7.90;99.90
6988;DHT22;3534;49.960;8.018;2022-12-07T10:24:02;7.90;99.90
6988;DHT22;3534;49.960;8.018;2022-12-07T10:26:31;8.10;99.90
6988;DHT22;3534;49.960;8.018;2022-12-07T10:29:00;8.30;99.90
6988;DHT22;3534;49.960;8.018;2022-12-07T10:31:30;8.50;99.90
6988;DHT22;3534;49.960;8.018;2022-12-07T10:33:58;8.60;99.90
6988;DHT22;3534;49.960;8.018;2022-12-07T10:36:26;8.70;99.90
6988;DHT22;3534;49.960;8.018;2022-12-07T10:38:59;8.70;99.90
6988;DHT22;3534;49.960;8.018;2022-12-07T10:41:26;8.50;99.90
6988;DHT22;3534;49.960;8.018;2022-12-07T10:43:54;8.40;99.90
6988;DHT22;3534;49.960;8.018;2022-12-07T10:46:59;8.20;99.90
6988;DHT22;3534;49.960;8.018;2022-12-07T10:52:45;8.20;99.90
6988;DHT22;3534;49.960;8.018;2022-12-07T10:55:23;8.30;99.90
6988;DHT22;3534;49.960;8.018;2022-12-07T10:58:15;8.50;99.90
6988;DHT22;3534;49.960;8.018;2022-12-07T11:00:53;8.60;99.90
6988;DHT22;3534;49.960;8.018;2022-12-07T11:03:40;8.50;99.90
6988;DHT22;3534;49.960;8.018;2022-12-07T11:06:16;8.60;99.90
6988;DHT22;3534;49.960;8.018;2022-12-07T11:08:58;8.70;99.90
6988;DHT22;3534;49.960;8.018;2022-12-07T11:11:33;8.80;99.90
6988;DHT22;3534;49.960;8.018;2022-12-07T11:14:08;9.00;99.90
6988;DHT22;3534;49.960;8.018;2022-12-07T11:16:52;9.00;99.90
6988;DHT22;3534;49.960;8.018;2022-12-07T11:19:34;8.90;99.90
6988;DHT22;3534;49.960;8.018;2022-12-07T11:22:14;8.80;99.90
6988;DHT22;3534;49.960;8.018;2022-12-07T11:24:49;8.70;99.90
6988;DHT22;3534;49.960;8.018;2022-12-07T11:27:22;8.70;99.90
6988;DHT22;3534;49.960;8.018;2022-12-07T11:30:08;8.70;99.90
6988;DHT22;3534;49.960;8.018;2022-12-07T11:32:45;8.70;99.90
6988;DHT22;3534;49.960;8.018;2022-12-07T11:35:22;8.60;99.90
6988;DHT22;3534;49.960;8.018;2022-12-07T11:38:01;8.50;99.90
6988;DHT22;3534;49.960;8.018;2022-12-07T11:40:35;8.50;99.90
6988;DHT22;3534;49.960;8.018;2022-12-07T11:43:06;8.50;99.90
6988;DHT22;3534;49.960;8.018;2022-12-07T11:45:41;8.40;99.90
6988;DHT22;3534;49.960;8.018;2022-12-07T11:48:12;8.50;99.90
6988;DHT22;3534;49.960;8.018;2022-12-07T11:50:45;8.60;99.90
6988;DHT22;3534;49.960;8.018;2022-12-07T11:53:18;8.60;99.90
6988;DHT22;3534;49.960;8.018;2022-12-07T11:55:48;8.60;99.90
6988;DHT22;3534;49.960;8.018;2022-12-07T11:58:28;8.40;99.90
6988;DHT22;3534;49.960;8.018;2022-12-07T12:01:11;8.40;99.90
6988;DHT22;3534;49.960;8.018;2022-12-07T12:03:41;8.40;99.90
6988;DHT22;3534;49.960;8.018;2022-12-07T12:06:11;8.50;99.90
6988;DHT22;3534;49.960;8.018;2022-12-07T12:08:41;8.50;99.90
6988;DHT22;3534;49.960;8.018;2022-12-07T12:11:18;8.50;99.90
6988;DHT22;3534;49.960;8.018;2022-12-07T12:14:15;8.40;99.90
6988;DHT22;3534;49.960;8.018;2022-12-07T12:16:59;8.40;99.90
6988;DHT22;3534;49.960;8.018;2022-12-07T12:19:34;8.40;99.90
6988;DHT22;3534;49.960;8.018;2022-12-07T12:22:10;8.50;99.90
6988;DHT22;3534;49.960;8.018;2022-12-07T12:24:39;8.50;99.90
6988;DHT22;3534;49.960;8.018;2022-12-07T12:27:08;8.30;99.90
6988;DHT22;3534;49.960;8.018;2022-12-07T12:29:39;8.30;99.90
6988;DHT22;3534;49.960;8.018;2022-12-07T12:32:13;8.30;99.90
6988;DHT22;3534;49.960;8.018;2022-12-07T12:34:42;8.40;99.90
6988;DHT22;3534;49.960;8.018;2022-12-07T12:37:44;8.50;99.90
6988;DHT22;3534;49.960;8.018;2022-12-07T12:43:39;8.80;99.90
6988;DHT22;3534;49.960;8.018;2022-12-07T12:46:38;9.10;99.90
6988;DHT22;3534;49.960;8.018;2022-12-07T12:49:35;9.10;99.90
6988;DHT22;3534;49.960;8.018;2022-12-07T12:55:18;9.00;99.90
6988;DHT22;3534;49.960;8.018;2022-12-07T12:57:47;8.90;99.90
6988;DHT22;3534;49.960;8.018;2022-12-07T13:00:19;8.90;99.90
6988;DHT22;3534;49.960;8.018;2022-12-07T13:02:50;9.00;99.90
6988;DHT22;3534;49.960;8.018;2022-12-07T13:05:19;9.00;99.90
6988;DHT22;3534;49.960;8.018;2022-12-07T13:07:56;9.20;99.90
6988;DHT22;3534;49.960;8.018;2022-12-07T13:10:49;9.30;99.90
6988;DHT22;3534;49.960;8.018;2022-12-07T13:13:32;9.50;99.90
6988;DHT22;3534;49.960;8.018;2022-12-07T13:16:37;9.50;99.90
6988;DHT22;3534;49.960;8.018;2022-12-07T13:25:23;9.60;99.90
6988;DHT22;3534;49.960;8.018;2022-12-07T13:27:57;9.50;99.90
6988;DHT22;3534;49.960;8.018;2022-12-07T13:30:28;9.30;99.90
6988;DHT22;3534;49.960;8.018;2022-12-07T13:32:58;9.20;99.90
6988;DHT22;3534;49.960;8.018;2022-12-07T13:35:32;9.20;99.90
6988;DHT22;3534;49.960;8.018;2022-12-07T13:38:02;9.20;99.90
6988;DHT22;3534;49.960;8.018;2022-12-07T13:40:29;9.20;99.90
6988;DHT22;3534;49.960;8.018;2022-12-07T13:42:59;9.20;99.90
6988;DHT22;3534;49.960;8.018;2022-12-07T13:45:27;9.20;99.90
6988;DHT22;3534;49.960;8.018;2022-12-07T13:48:14;9.20;99.90
6988;DHT22;3534;49.960;8.018;2022-12-07T13:50:42;9.10;99.90
6988;DHT22;3534;49.960;8.018;2022-12-07T13:53:13;9.10;99.90
6988;DHT22;3534;49.960;8.018;2022-12-07T13:55:45;9.10;99.90
6988;DHT22;3534;49.960;8.018;2022-12-07T13:58:14;9.10;99.90
6988;DHT22;3534;49.960;8.018;2022-12-07T14:00:41;9.10;99.90
6988;DHT22;3534;49.960;8.018;2022-12-07T14:03:26;9.10;99.90
6988;DHT22;3534;49.960;8.018;2022-12-07T14:06:06;9.10;99.90
6988;DHT22;3534;49.960;8.018;2022-12-07T14:08:33;9.10;99.90
6988;DHT22;3534;49.960;8.018;2022-12-07T14:11:00;9.10;99.90
6988;DHT22;3534;49.960;8.018;2022-12-07T14:13:31;9.10;99.90
6988;DHT22;3534;49.960;8.018;2022-12-07T14:16:00;9.10;99.90
6988;DHT22;3534;49.960;8.018;2022-12-07T14:18:28;9.10;99.90
6988;DHT22;3534;49.960;8.018;2022-12-07T14:21:05;9.10;99.90
6988;DHT22;3534;49.960;8.018;2022-12-07T14:23:32;9.10;99.90
6988;DHT22;3534;49.960;8.018;2022-12-07T14:26:07;9.20;99.90
6988;DHT22;3534;49.960;8.018;2022-12-07T14:28:37;9.30;99.90
6988;DHT22;3534;49.960;8.018;2022-12-07T14:31:10;9.40;99.90
6988;DHT22;3534;49.960;8.018;2022-12-07T14:33:38;9.60;99.90
6988;DHT22;3534;49.960;8.018;2022-12-07T14:36:05;9.60;99.90
6988;DHT22;3534;49.960;8.018;2022-12-07T14:38:32;9.60;99.90
6988;DHT22;3534;49.960;8.018;2022-12-07T14:40:58;9.60;99.90
6988;DHT22;3534;49.960;8.018;2022-12-07T14:43:47;9.60;99.90
6988;DHT22;3534;49.960;8.018;2022-12-07T14:46:14;9.60;99.90
6988;DHT22;3534;49.960;8.018;2022-12-07T14:48:41;9.50;99.90
6988;DHT22;3534;49.960;8.018;2022-12-07T14:51:11;9.50;99.90
6988;DHT22;3534;49.960;8.018;2022-12-07T14:53:40;9.50;99.90
6988;DHT22;3534;49.960;8.018;2022-12-07T14:56:09;9.40;99.90
6988;DHT22;3534;49.960;8.018;2022-12-07T14:58:39;9.40;99.90
6988;DHT22;3534;49.960;8.018;2022-12-07T15:01:08;9.40;99.90
6988;DHT22;3534;49.960;8.018;2022-12-07T15:03:35;9.40;99.90
6988;DHT22;3534;49.960;8.018;2022-12-07T15:06:05;9.30;99.90
6988;DHT22;3534;49.960;8.018;2022-12-07T15:08:32;9.20;99.90
6988;DHT22;3534;49.960;8.018;2022-12-07T15:10:59;9.10;99.90
6988;DHT22;3534;49.960;8.018;2022-12-07T15:13:26;9.10;99.90
6988;DHT22;3534;49.960;8.018;2022-12-07T15:16:14;9.10;99.90
6988;DHT22;3534;49.960;8.018;2022-12-07T15:18:44;9.00;99.90
6988;DHT22;3534;49.960;8.018;2022-12-07T15:21:15;9.00;99.90
6988;DHT22;3534;49.960;8.018;2022-12-07T15:23:42;9.00;99.90
6988;DHT22;3534;49.960;8.018;2022-12-07T15:26:10;8.90;99.90
6988;DHT22;3534;49.960;8.018;2022-12-07T15:28:37;8.90;99.90
6988;DHT22;3534;49.960;8.018;2022-12-07T15:31:04;8.90;99.90
6988;DHT22;3534;49.960;8.018;2022-12-07T15:33:32;8.90;99.90
6988;DHT22;3534;49.960;8.018;2022-12-07T15:35:59;8.90;99.90
6988;DHT22;3534;49.960;8.018;2022-12-07T15:38:26;8.90;99.90
6988;DHT22;3534;49.960;8.018;2022-12-07T15:40:54;8.90;99.90
6988;DHT22;3534;49.960;8.018;2022-12-07T15:43:20;9.00;99.90
6988;DHT22;3534;49.960;8.018;2022-12-07T15:46:05;9.00;99.90
6988;DHT22;3534;49.960;8.018;2022-12-07T15:48:33;9.00;99.90
6988;DHT22;3534;49.960;8.018;2022-12-07T15:51:03;9.00;99.90
6988;DHT22;3534;49.960;8.018;2022-12-07T15:53:30;9.00;99.90
6988;DHT22;3534;49.960;8.018;2022-12-07T15:55:56;9.00;99.90
6988;DHT22;3534;49.960;8.018;2022-12-07T15:58:23;8.90;99.90
6988;DHT22;3534;49.960;8.018;2022-12-07T16:00:50;8.80;99.90
6988;DHT22;3534;49.960;8.018;2022-12-07T16:03:17;8.80;99.90
6988;DHT22;3534;49.960;8.018;2022-12-07T16:05:50;8.80;99.90
6988;DHT22;3534;49.960;8.018;2022-12-07T16:08:17;8.70;99.90
6988;DHT22;3534;49.960;8.018;2022-12-07T16:10:43;8.70;99.90
6988;DHT22;3534;49.960;8.018;2022-12-07T16:13:10;8.70;99.90
6988;DHT22;3534;49.960;8.018;2022-12-07T16:15:38;8.60;99.90
6988;DHT22;3534;49.960;8.018;2022-12-07T16:18:05;8.60;99.90
6988;DHT22;3534;49.960;8.018;2022-12-07T16:20:32;8.60;99.90
6988;DHT22;3534;49.960;8.018;2022-12-07T16:23:00;8.50;99.90
6988;DHT22;3534;49.960;8.018;2022-12-07T16:25:27;8.50;99.90
6988;DHT22;3534;49.960;8.018;2022-12-07T16:27:54;8.50;99.90
6988;DHT22;3534;49.960;8.018;2022-12-07T16:30:21;8.40;99.90
6988;DHT22;3534;49.960;8.018;2022-12-07T16:32:47;8.30;99.90
6988;DHT22;3534;49.960;8.018;2022-12-07T16:35:14;8.30;99.90
6988;DHT22;3534;49.960;8.018;2022-12-07T16:37:42;8.10;99.90
6988;DHT22;3534;49.960;8.018;2022-12-07T16:40:11;8.00;99.90
6988;DHT22;3534;49.960;8.018;2022-12-07T16:42:38;8.00;99.90
6988;DHT22;3534;49.960;8.018;2022-12-07T16:45:06;8.00;99.90
6988;DHT22;3534;49.960;8.018;2022-12-07T16:47:32;8.00;99.90
6988;DHT22;3534;49.960;8.018;2022-12-07T16:49:59;8.00;99.90
6988;DHT22;3534;49.960;8.018;2022-12-07T16:52:26;7.90;99.90
6988;DHT22;3534;49.960;8.018;2022-12-07T16:54:52;7.90;99.90